Time;durP1;ratioP1;P1;durP2;ratioP2;P2;SDS_P1;SDS_P2;PMS_P1;PMS_P2;Temp;Humidity;BMP_temperature;BMP_pressure;BME280_temperature;BME280_humidity;BME280_pressure;Samples;Min_cycle;Max_cycle;Signal;HPM_P1;HPM_P2
2020/11/08 00:02:16;;;;;;;4.29;3.89;;;;;;;19.77;54.92;101178.71;;;;-51
2020/11/08 00:05:15;;;;;;;4.50;4.10;;;;;;;19.76;55.08;101176.11;;;;-52
2020/11/08 00:08:16;;;;;;;4.49;4.01;;;;;;;19.75;55.00;101169.81;;;;-51
2020/11/08 00:11:16;;;;;;;4.39;3.99;;;;;;;19.73;54.96;101167.34;;;;-63
2020/11/08 00:14:15;;;;;;;4.43;4.03;;;;;;;19.73;55.01;101164.25;;;;-52
2020/11/08 00:17:16;;;;;;;4.24;3.84;;;;;;;19.72;55.03;101168.80;;;;-51
2020/11/08 00:20:15;;;;;;;4.79;4.04;;;;;;;19.69;55.12;101169.11;;;;-62
2020/11/08 00:23:16;;;;;;;4.23;3.83;;;;;;;19.67;55.15;101169.35;;;;-56
2020/11/08 00:26:16;;;;;;;4.91;3.80;;;;;;;19.67;55.08;101173.95;;;;-57
2020/11/08 00:29:15;;;;;;;4.27;3.87;;;;;;;19.65;55.16;101178.66;;;;-57
2020/11/08 00:32:16;;;;;;;4.43;4.03;;;;;;;19.64;55.22;101171.47;;;;-51
2020/11/08 00:35:16;;;;;;;4.09;3.79;;;;;;;19.63;55.24;101169.90;;;;-63
2020/11/08 00:38:15;;;;;;;4.41;4.01;;;;;;;19.61;55.19;101177.13;;;;-62
2020/11/08 00:41:16;;;;;;;4.31;3.91;;;;;;;19.60;55.18;101176.69;;;;-63
2020/11/08 00:44:15;;;;;;;4.09;3.69;;;;;;;19.58;55.39;101186.66;;;;-62
2020/11/08 00:47:15;;;;;;;4.17;3.77;;;;;;;19.57;55.28;101179.34;;;;-58
2020/11/08 00:50:16;;;;;;;4.31;3.91;;;;;;;19.56;55.29;101173.69;;;;-57
2020/11/08 00:53:15;;;;;;;4.33;3.93;;;;;;;19.55;55.38;101178.73;;;;-57
2020/11/08 00:56:16;;;;;;;4.23;3.87;;;;;;;19.54;55.37;101184.55;;;;-51
2020/11/08 00:59:17;;;;;;;4.21;3.81;;;;;;;19.53;55.45;101188.09;;;;-51
2020/11/08 01:02:15;;;;;;;4.27;3.87;;;;;;;19.52;55.27;101187.61;;;;-51
2020/11/08 01:05:16;;;;;;;4.20;3.80;;;;;;;19.51;55.35;101185.98;;;;-52
2020/11/08 01:08:15;;;;;;;4.05;3.71;;;;;;;19.49;55.52;101187.08;;;;-63
2020/11/08 01:11:16;;;;;;;4.05;3.65;;;;;;;19.47;55.54;101192.48;;;;-51
2020/11/08 01:14:16;;;;;;;4.33;3.93;;;;;;;19.48;55.42;101188.99;;;;-51
2020/11/08 01:17:15;;;;;;;4.05;3.69;;;;;;;19.47;55.36;101185.50;;;;-51
2020/11/08 01:20:16;;;;;;;3.96;3.66;;;;;;;19.46;55.51;101191.47;;;;-52
2020/11/08 01:23:17;;;;;;;4.03;3.66;;;;;;;19.45;55.47;101192.20;;;;-57
2020/11/08 01:26:15;;;;;;;4.08;3.68;;;;;;;19.43;55.54;101192.17;;;;-56
2020/11/08 01:29:16;;;;;;;3.89;3.59;;;;;;;19.42;55.56;101191.67;;;;-51
2020/11/08 01:32:15;;;;;;;4.00;3.70;;;;;;;19.43;55.49;101188.67;;;;-51
2020/11/08 01:35:16;;;;;;;3.98;3.58;;;;;;;19.41;55.54;101194.81;;;;-51
2020/11/08 01:38:16;;;;;;;3.83;3.53;;;;;;;19.39;55.46;101189.98;;;;-51
2020/11/08 01:41:15;;;;;;;3.96;3.53;;;;;;;19.39;55.44;101200.70;;;;-51
2020/11/08 01:44:16;;;;;;;4.00;3.63;;;;;;;19.38;55.42;101200.70;;;;-51
2020/11/08 01:47:15;;;;;;;4.03;3.72;;;;;;;19.38;55.60;101202.38;;;;-52
2020/11/08 01:50:15;;;;;;;3.81;3.51;;;;;;;19.37;55.39;101189.45;;;;-51
2020/11/08 01:53:16;;;;;;;3.73;3.43;;;;;;;19.36;55.40;101195.71;;;;-51
2020/11/08 01:56:15;;;;;;;3.69;3.39;;;;;;;19.35;55.54;101198.36;;;;-52
2020/11/08 01:59:16;;;;;;;3.84;3.54;;;;;;;19.35;55.59;101197.38;;;;-57
2020/11/08 02:02:15;;;;;;;3.81;3.50;;;;;;;19.33;55.57;101193.28;;;;-51
2020/11/08 02:05:16;;;;;;;3.75;3.45;;;;;;;19.32;55.47;101193.03;;;;-52
2020/11/08 02:08:16;;;;;;;3.60;3.30;;;;;;;19.32;55.64;101192.02;;;;-52
2020/11/08 02:11:15;;;;;;;3.81;3.49;;;;;;;19.31;55.51;101192.83;;;;-63
2020/11/08 02:14:15;;;;;;;3.65;3.29;;;;;;;19.30;55.41;101187.62;;;;-62
2020/11/08 02:17:16;;;;;;;3.53;3.23;;;;;;;19.29;55.47;101197.19;;;;-51
2020/11/08 02:20:15;;;;;;;3.70;3.40;;;;;;;19.28;55.46;101199.05;;;;-52
2020/11/08 02:23:15;;;;;;;3.77;3.47;;;;;;;19.27;55.61;101200.48;;;;-51
2020/11/08 02:26:16;;;;;;;3.82;3.48;;;;;;;19.26;55.52;101203.32;;;;-51
2020/11/08 02:29:15;;;;;;;3.69;3.39;;;;;;;19.26;55.53;101205.02;;;;-53
2020/11/08 02:32:16;;;;;;;3.64;3.34;;;;;;;19.24;55.66;101209.05;;;;-52
2020/11/08 02:35:15;;;;;;;3.79;3.45;;;;;;;19.24;55.69;101214.81;;;;-51
2020/11/08 02:38:15;;;;;;;3.68;3.38;;;;;;;19.23;55.70;101217.95;;;;-56
2020/11/08 02:41:16;;;;;;;3.64;3.34;;;;;;;19.22;55.66;101214.53;;;;-57
2020/11/08 02:44:15;;;;;;;3.53;3.23;;;;;;;19.22;55.60;101217.63;;;;-52
2020/11/08 02:47:16;;;;;;;3.47;3.19;;;;;;;19.21;55.76;101216.28;;;;-62
2020/11/08 02:50:16;;;;;;;3.54;3.24;;;;;;;19.20;55.59;101223.92;;;;-50
2020/11/08 02:53:15;;;;;;;4.04;3.43;;;;;;;19.20;55.62;101221.40;;;;-51
2020/11/08 02:56:16;;;;;;;3.42;3.12;;;;;;;19.19;55.63;101225.02;;;;-50
2020/11/08 02:59:15;;;;;;;3.45;3.15;;;;;;;19.18;55.75;101222.58;;;;-62
2020/11/08 03:02:15;;;;;;;3.57;3.27;;;;;;;19.17;55.72;101226.61;;;;-51
2020/11/08 03:05:16;;;;;;;3.67;3.37;;;;;;;19.17;55.76;101225.95;;;;-51
2020/11/08 03:08:15;;;;;;;3.50;3.20;;;;;;;19.16;55.73;101226.69;;;;-52
2020/11/08 03:11:15;;;;;;;3.59;3.29;;;;;;;19.15;55.78;101223.55;;;;-51
2020/11/08 03:14:15;;;;;;;3.41;3.11;;;;;;;19.14;55.68;101222.09;;;;-51
2020/11/08 03:17:15;;;;;;;3.21;2.96;;;;;;;19.14;55.74;101222.25;;;;-57
2020/11/08 03:20:16;;;;;;;3.49;3.19;;;;;;;19.14;55.73;101219.73;;;;-57
2020/11/08 03:23:15;;;;;;;3.45;3.15;;;;;;;19.13;55.63;101218.97;;;;-51
2020/11/08 03:26:15;;;;;;;3.50;3.20;;;;;;;19.12;55.79;101222.05;;;;-51
2020/11/08 03:29:16;;;;;;;3.33;3.06;;;;;;;19.13;55.77;101227.01;;;;-50
2020/11/08 03:32:15;;;;;;;3.56;3.26;;;;;;;19.11;55.78;101225.34;;;;-62
2020/11/08 03:35:16;;;;;;;3.30;3.00;;;;;;;19.11;55.76;101230.38;;;;-51
2020/11/08 03:38:15;;;;;;;3.46;3.16;;;;;;;19.10;55.73;101235.91;;;;-51
2020/11/08 03:41:15;;;;;;;3.41;3.11;;;;;;;19.09;55.82;101238.91;;;;-51
2020/11/08 03:44:16;;;;;;;3.79;3.49;;;;;;;19.07;55.73;101241.47;;;;-49
2020/11/08 03:47:15;;;;;;;3.41;3.11;;;;;;;19.08;55.76;101246.26;;;;-50
2020/11/08 03:50:16;;;;;;;3.40;3.10;;;;;;;19.07;55.85;101249.88;;;;-51
2020/11/08 03:53:15;;;;;;;3.55;3.25;;;;;;;19.07;55.79;101254.83;;;;-51
2020/11/08 03:56:15;;;;;;;3.32;3.02;;;;;;;19.06;55.77;101246.95;;;;-51
2020/11/08 03:59:16;;;;;;;3.50;3.20;;;;;;;19.05;55.75;101249.52;;;;-56
2020/11/08 04:02:15;;;;;;;3.37;3.07;;;;;;;19.05;55.80;101251.95;;;;-57
2020/11/08 04:05:15;;;;;;;3.39;3.09;;;;;;;19.04;55.86;101244.55;;;;-57
2020/11/08 04:08:16;;;;;;;3.40;3.10;;;;;;;19.03;55.84;101243.25;;;;-51
2020/11/08 04:11:15;;;;;;;3.50;3.20;;;;;;;19.04;55.80;101237.97;;;;-56
2020/11/08 04:14:15;;;;;;;3.56;3.26;;;;;;;19.02;55.82;101240.36;;;;-56
2020/11/08 04:17:15;;;;;;;3.48;3.18;;;;;;;19.01;55.77;101241.66;;;;-51
2020/11/08 04:20:15;;;;;;;3.59;3.29;;;;;;;19.01;55.83;101245.07;;;;-51
2020/11/08 04:23:16;;;;;;;3.40;3.10;;;;;;;19.01;55.85;101243.53;;;;-61
2020/11/08 04:26:15;;;;;;;3.24;2.96;;;;;;;19.00;55.78;101248.94;;;;-57
2020/11/08 04:29:15;;;;;;;3.11;2.89;;;;;;;18.98;55.81;101242.31;;;;-51
2020/11/08 04:32:15;;;;;;;3.31;3.01;;;;;;;18.98;55.79;101251.17;;;;-62
2020/11/08 04:35:15;;;;;;;3.05;2.85;;;;;;;18.97;55.73;101250.67;;;;-62
2020/11/08 04:38:16;;;;;;;3.46;3.16;;;;;;;18.96;55.81;101250.87;;;;-61
2020/11/08 04:41:15;;;;;;;3.41;3.11;;;;;;;18.96;55.83;101255.02;;;;-51
2020/11/08 04:44:16;;;;;;;3.09;2.89;;;;;;;18.97;55.85;101257.58;;;;-51
2020/11/08 04:47:16;;;;;;;3.12;2.90;;;;;;;18.95;55.81;101254.77;;;;-50
2020/11/08 04:50:15;;;;;;;3.42;3.12;;;;;;;18.95;55.75;101253.31;;;;-51
2020/11/08 04:53:15;;;;;;;3.24;2.96;;;;;;;18.94;55.82;101246.69;;;;-50
2020/11/08 04:56:15;;;;;;;3.33;3.03;;;;;;;18.93;55.79;101247.50;;;;-51
2020/11/08 04:59:15;;;;;;;3.04;2.84;;;;;;;18.94;55.79;101240.92;;;;-49
2020/11/08 05:02:16;;;;;;;3.38;3.08;;;;;;;18.93;55.77;101239.45;;;;-50
2020/11/08 05:05:15;;;;;;;3.27;3.07;;;;;;;18.92;55.81;101234.38;;;;-57
2020/11/08 05:08:15;;;;;;;3.16;2.87;;;;;;;18.91;55.76;101236.73;;;;-57
2020/11/08 05:11:16;;;;;;;3.44;3.14;;;;;;;18.91;55.78;101234.46;;;;-57
2020/11/08 05:14:15;;;;;;;3.29;2.99;;;;;;;18.91;55.76;101234.38;;;;-61
2020/11/08 05:17:16;;;;;;;2.84;2.64;;;;;;;18.91;55.79;101236.66;;;;-62
2020/11/08 05:20:15;;;;;;;3.30;3.00;;;;;;;18.90;55.77;101242.88;;;;-61
2020/11/08 05:23:15;;;;;;;2.95;2.75;;;;;;;18.89;55.84;101236.53;;;;-63
2020/11/08 05:26:16;;;;;;;2.97;2.73;;;;;;;18.88;55.77;101237.91;;;;-51
2020/11/08 05:29:15;;;;;;;3.04;2.79;;;;;;;18.90;55.78;101236.05;;;;-52
2020/11/08 05:32:15;;;;;;;2.97;2.77;;;;;;;18.89;55.80;101230.59;;;;-62
2020/11/08 05:35:15;;;;;;;3.01;2.77;;;;;;;18.88;55.80;101234.22;;;;-62
2020/11/08 05:38:15;;;;;;;3.08;2.86;;;;;;;18.88;55.85;101235.68;;;;-51
2020/11/08 05:41:15;;;;;;;2.94;2.74;;;;;;;18.87;55.78;101233.97;;;;-57
2020/11/08 05:44:15;;;;;;;3.05;2.83;;;;;;;18.86;55.78;101238.84;;;;-63
2020/11/08 05:47:15;;;;;;;2.83;2.63;;;;;;;18.86;55.79;101239.53;;;;-62
2020/11/08 05:50:15;;;;;;;3.03;2.83;;;;;;;18.85;55.85;101233.11;;;;-50
2020/11/08 05:53:15;;;;;;;2.79;2.59;;;;;;;18.85;55.87;101229.95;;;;-57
2020/11/08 05:56:16;;;;;;;3.03;2.83;;;;;;;18.85;55.80;101229.78;;;;-55
2020/11/08 05:59:15;;;;;;;2.87;2.67;;;;;;;18.84;55.83;101230.34;;;;-57
2020/11/08 06:02:15;;;;;;;3.00;2.75;;;;;;;18.84;55.89;101229.17;;;;-51
2020/11/08 06:05:16;;;;;;;3.03;2.83;;;;;;;18.84;55.82;101225.11;;;;-62
2020/11/08 06:10:15;;;;;;;3.06;2.76;;;;;;;18.83;55.82;101231.52;;;;-62
2020/11/08 06:13:15;;;;;;;3.01;2.77;;;;;;;18.83;55.89;101234.77;;;;-63
2020/11/08 06:16:15;;;;;;;2.89;2.69;;;;;;;18.82;55.84;101238.09;;;;-62
2020/11/08 06:21:15;;;;;;;2.78;2.58;;;;;;;18.85;55.77;101237.98;;;;-57
2020/11/08 06:24:15;;;;;;;2.81;2.61;;;;;;;18.86;55.63;101233.36;;;;-57
2020/11/08 06:27:16;;;;;;;2.95;2.75;;;;;;;18.89;55.50;101235.88;;;;-62
2020/11/08 06:30:15;;;;;;;2.83;2.63;;;;;;;18.91;55.80;101234.30;;;;-52
2020/11/08 06:33:15;;;;;;;2.70;2.50;;;;;;;18.94;56.05;101233.94;;;;-51
2020/11/08 06:36:16;;;;;;;3.09;2.34;;;;;;;18.96;56.05;101235.20;;;;-51
2020/11/08 06:39:15;;;;;;;2.62;2.42;;;;;;;18.99;56.06;101232.03;;;;-51
2020/11/08 06:42:16;;;;;;;2.73;2.53;;;;;;;19.03;55.96;101234.63;;;;-52
2020/11/08 06:45:15;;;;;;;2.65;2.45;;;;;;;19.07;56.02;101238.83;;;;-51
2020/11/08 06:48:15;;;;;;;2.67;2.47;;;;;;;19.10;56.06;101244.84;;;;-57
2020/11/08 06:51:15;;;;;;;2.75;2.55;;;;;;;19.14;56.09;101247.44;;;;-51
2020/11/08 06:54:15;;;;;;;2.61;2.41;;;;;;;19.17;56.11;101247.08;;;;-50
2020/11/08 06:57:15;;;;;;;2.69;2.49;;;;;;;19.21;56.20;101255.77;;;;-52
2020/11/08 07:00:16;;;;;;;2.73;2.53;;;;;;;19.24;56.21;101256.99;;;;-57
2020/11/08 07:03:15;;;;;;;2.75;2.55;;;;;;;19.29;56.28;101258.78;;;;-58
2020/11/08 07:06:15;;;;;;;2.71;2.51;;;;;;;19.33;56.36;101262.52;;;;-57
2020/11/08 07:09:15;;;;;;;2.73;2.53;;;;;;;19.36;56.28;101261.52;;;;-57
2020/11/08 07:12:15;;;;;;;2.59;2.39;;;;;;;19.40;56.34;101262.33;;;;-57
2020/11/08 07:15:16;;;;;;;2.69;2.49;;;;;;;19.43;56.34;101259.88;;;;-56
2020/11/08 07:18:15;;;;;;;2.66;2.46;;;;;;;19.46;56.39;101266.11;;;;-56
2020/11/08 07:21:15;;;;;;;2.70;2.50;;;;;;;19.49;56.32;101265.28;;;;-51
2020/11/08 07:24:15;;;;;;;2.60;2.40;;;;;;;19.52;56.29;101274.03;;;;-52
2020/11/08 07:27:15;;;;;;;7.15;2.37;;;;;;;19.55;56.31;101274.27;;;;-53
2020/11/08 07:30:15;;;;;;;2.69;2.49;;;;;;;19.59;56.35;101273.73;;;;-52
2020/11/08 07:33:15;;;;;;;2.61;2.41;;;;;;;19.61;56.33;101274.59;;;;-57
2020/11/08 07:36:16;;;;;;;2.47;2.27;;;;;;;19.63;56.30;101278.37;;;;-56
2020/11/08 07:39:16;;;;;;;2.79;2.59;;;;;;;19.65;56.23;101283.32;;;;-51
2020/11/08 07:42:15;;;;;;;2.51;2.31;;;;;;;19.68;56.26;101288.16;;;;-53
2020/11/08 07:45:15;;;;;;;2.68;2.41;;;;;;;19.69;56.22;101292.72;;;;-52
2020/11/08 07:48:16;;;;;;;2.52;2.32;;;;;;;19.72;56.18;101293.63;;;;-50
2020/11/08 07:51:15;;;;;;;2.60;2.40;;;;;;;19.73;56.15;101292.83;;;;-64
2020/11/08 07:54:15;;;;;;;2.49;2.29;;;;;;;19.74;56.22;101295.70;;;;-57
2020/11/08 07:57:15;;;;;;;2.62;2.42;;;;;;;19.75;56.03;101295.88;;;;-63
2020/11/08 08:00:15;;;;;;;2.73;2.53;;;;;;;19.76;55.98;101294.12;;;;-63
2020/11/08 08:03:16;;;;;;;2.50;2.30;;;;;;;19.76;56.13;101292.98;;;;-63
2020/11/08 08:06:15;;;;;;;4.80;2.49;;;;;;;19.74;55.68;101292.05;;;;-62
2020/11/08 08:09:15;;;;;;;4.94;4.33;;;;;;;19.49;51.59;101294.80;;;;-58
2020/11/08 08:12:15;;;;;;;5.07;4.59;;;;;;;19.31;50.42;101290.92;;;;-59
2020/11/08 08:15:15;;;;;;;5.01;4.55;;;;;;;19.06;49.48;101290.58;;;;-53
2020/11/08 08:18:16;;;;;;;5.58;4.61;;;;;;;18.96;49.46;101288.08;;;;-51
2020/11/08 08:21:15;;;;;;;8.70;4.33;;;;;;;19.12;50.27;101283.48;;;;-51
2020/11/08 08:24:15;;;;;;;7.78;4.02;;;;;;;19.23;50.85;101286.78;;;;-53
2020/11/08 08:27:15;;;;;;;4.19;3.50;;;;;;;19.31;51.79;101288.00;;;;-51
2020/11/08 08:30:15;;;;;;;3.65;3.35;;;;;;;19.36;52.33;101284.80;;;;-51
2020/11/08 08:33:15;;;;;;;3.61;3.10;;;;;;;19.42;52.61;101287.31;;;;-56
2020/11/08 08:36:15;;;;;;;4.03;3.17;;;;;;;19.45;52.84;101286.99;;;;-53
2020/11/08 08:39:15;;;;;;;3.31;3.01;;;;;;;19.49;52.85;101284.80;;;;-51
2020/11/08 08:42:15;;;;;;;3.85;3.19;;;;;;;19.52;53.11;101288.09;;;;-53
2020/11/08 08:45:15;;;;;;;3.21;2.91;;;;;;;19.57;53.09;101295.81;;;;-53
2020/11/08 08:48:15;;;;;;;3.13;2.85;;;;;;;19.58;53.24;101298.86;;;;-53
2020/11/08 08:51:15;;;;;;;3.94;2.96;;;;;;;19.61;53.42;101302.27;;;;-53
2020/11/08 08:54:15;;;;;;;3.17;2.87;;;;;;;19.64;53.50;101294.99;;;;-54
2020/11/08 08:57:19;;;;;;;3.02;2.75;;;;;;;19.67;53.53;101295.28;;;;-54
2020/11/08 09:00:16;;;;;;;3.27;2.82;;;;;;;19.70;53.64;101295.35;;;;-53
2020/11/08 09:03:15;;;;;;;3.13;2.84;;;;;;;19.71;53.65;101291.81;;;;-53
2020/11/08 09:06:15;;;;;;;4.12;2.91;;;;;;;19.74;53.68;101296.69;;;;-51
2020/11/08 09:09:15;;;;;;;3.16;2.60;;;;;;;19.75;53.75;101296.20;;;;-51
2020/11/08 09:12:15;;;;;;;2.89;2.65;;;;;;;19.77;53.78;101302.09;;;;-51
2020/11/08 09:15:15;;;;;;;2.96;2.67;;;;;;;19.79;53.88;101303.59;;;;-52
2020/11/08 09:18:15;;;;;;;3.84;2.65;;;;;;;19.80;53.90;101303.79;;;;-51
2020/11/08 09:21:15;;;;;;;2.71;2.51;;;;;;;19.82;54.01;101305.34;;;;-50
2020/11/08 09:24:15;;;;;;;2.95;2.71;;;;;;;19.84;53.94;101305.05;;;;-51
2020/11/08 09:27:15;;;;;;;2.69;2.49;;;;;;;19.86;53.93;101303.63;;;;-50
2020/11/08 09:30:15;;;;;;;5.91;2.83;;;;;;;19.91;54.19;101304.47;;;;-47
2020/11/08 09:33:16;;;;;;;2.91;2.61;;;;;;;19.92;54.62;101305.77;;;;-60
2020/11/08 09:36:15;;;;;;;2.85;2.53;;;;;;;19.94;54.80;101309.99;;;;-50
2020/11/08 09:39:15;;;;;;;12.53;3.01;;;;;;;19.94;52.99;101309.80;;;;-58
2020/11/08 09:42:15;;;;;;;10.90;3.25;;;;;;;19.98;54.21;101308.57;;;;-59
2020/11/08 09:45:15;;;;;;;5.33;2.66;;;;;;;20.00;54.47;101306.73;;;;-63
2020/11/08 09:48:16;;;;;;;6.40;2.65;;;;;;;20.00;54.60;101309.02;;;;-62
2020/11/08 09:51:15;;;;;;;4.65;2.80;;;;;;;20.03;54.89;101307.05;;;;-59
2020/11/08 09:54:15;;;;;;;4.40;2.87;;;;;;;20.05;55.04;101304.48;;;;-59
2020/11/08 09:57:15;;;;;;;5.13;2.70;;;;;;;20.06;55.08;101305.95;;;;-57
2020/11/08 10:00:15;;;;;;;3.92;2.69;;;;;;;20.07;55.16;101301.42;;;;-56
2020/11/08 10:03:15;;;;;;;5.49;2.91;;;;;;;20.08;55.03;101301.51;;;;-49
2020/11/08 10:06:15;;;;;;;3.92;2.60;;;;;;;20.10;55.10;101298.45;;;;-58
2020/11/08 10:09:15;;;;;;;4.16;2.88;;;;;;;20.12;55.17;101292.06;;;;-61
2020/11/08 10:12:15;;;;;;;4.29;3.02;;;;;;;20.14;55.21;101294.53;;;;-60
2020/11/08 10:15:15;;;;;;;3.68;2.50;;;;;;;20.15;55.44;101295.78;;;;-58
2020/11/08 10:18:15;;;;;;;3.06;2.71;;;;;;;20.15;55.19;101285.53;;;;-60
2020/11/08 10:21:15;;;;;;;2.84;2.37;;;;;;;20.16;55.16;101283.09;;;;-62
2020/11/08 10:24:15;;;;;;;3.09;2.79;;;;;;;20.18;55.35;101278.33;;;;-63
2020/11/08 10:27:15;;;;;;;3.76;2.50;;;;;;;20.18;55.26;101273.28;;;;-61
2020/11/08 10:30:15;;;;;;;3.53;2.68;;;;;;;20.19;55.20;101273.16;;;;-61
2020/11/08 10:33:15;;;;;;;2.93;2.59;;;;;;;20.20;55.14;101271.69;;;;-54
2020/11/08 10:36:15;;;;;;;3.65;2.57;;;;;;;20.21;55.52;101267.94;;;;-58
2020/11/08 10:39:15;;;;;;;3.33;2.70;;;;;;;20.24;55.69;101270.05;;;;-60
2020/11/08 10:42:15;;;;;;;5.37;2.70;;;;;;;20.25;55.42;101268.33;;;;-58
2020/11/08 10:45:15;;;;;;;4.47;2.65;;;;;;;20.25;54.85;101263.73;;;;-50
2020/11/08 10:48:15;;;;;;;5.39;2.71;;;;;;;20.25;54.88;101265.56;;;;-52
2020/11/08 10:51:15;;;;;;;4.25;2.58;;;;;;;20.25;54.93;101259.22;;;;-56
2020/11/08 10:54:15;;;;;;;5.51;2.51;;;;;;;20.26;54.89;101256.73;;;;-58
2020/11/08 10:57:15;;;;;;;4.13;2.61;;;;;;;20.27;54.93;101254.20;;;;-47
2020/11/08 11:00:15;;;;;;;5.17;2.85;;;;;;;20.27;54.85;101248.18;;;;-63
2020/11/08 11:03:15;;;;;;;3.51;2.59;;;;;;;20.27;54.80;101248.18;;;;-57
2020/11/08 11:06:16;;;;;;;3.67;2.64;;;;;;;20.27;54.79;101240.61;;;;-53
2020/11/08 11:09:15;;;;;;;3.45;2.47;;;;;;;20.27;54.87;101239.99;;;;-56
2020/11/08 11:12:15;;;;;;;5.49;2.55;;;;;;;20.28;54.80;101235.03;;;;-51
2020/11/08 11:15:15;;;;;;;3.79;2.66;;;;;;;20.28;54.87;101237.14;;;;-48
2020/11/08 11:18:15;;;;;;;10.81;2.85;;;;;;;20.27;54.58;101240.86;;;;-50
2020/11/08 11:21:15;;;;;;;7.88;2.91;;;;;;;20.28;54.03;101239.02;;;;-56
2020/11/08 11:24:15;;;;;;;4.49;2.67;;;;;;;20.27;54.10;101235.97;;;;-59
2020/11/08 11:27:15;;;;;;;3.06;2.75;;;;;;;20.27;54.12;101238.00;;;;-59
2020/11/08 11:30:15;;;;;;;5.27;2.61;;;;;;;20.27;54.10;101237.11;;;;-57
2020/11/08 11:33:15;;;;;;;8.67;3.09;;;;;;;20.26;54.36;101230.11;;;;-50
2020/11/08 11:36:15;;;;;;;5.09;2.73;;;;;;;20.28;54.32;101229.66;;;;-56
2020/11/08 11:39:15;;;;;;;3.12;2.75;;;;;;;20.29;54.37;101227.00;;;;-59
2020/11/08 11:42:15;;;;;;;5.68;2.80;;;;;;;20.29;54.26;101223.63;;;;-59
2020/11/08 11:45:15;;;;;;;4.53;2.70;;;;;;;20.29;54.29;101223.30;;;;-59
2020/11/08 11:48:15;;;;;;;5.92;2.62;;;;;;;20.29;54.23;101221.02;;;;-58
2020/11/08 11:51:15;;;;;;;3.83;2.66;;;;;;;20.29;54.29;101220.95;;;;-59
2020/11/08 11:54:15;;;;;;;5.95;2.63;;;;;;;20.29;54.23;101216.09;;;;-58
2020/11/08 11:57:15;;;;;;;4.61;2.75;;;;;;;20.30;54.27;101212.59;;;;-59
2020/11/08 12:00:15;;;;;;;3.49;2.47;;;;;;;20.32;54.24;101211.23;;;;-58
2020/11/08 12:03:15;;;;;;;3.08;2.56;;;;;;;20.31;54.32;101210.64;;;;-59
2020/11/08 12:06:15;;;;;;;5.78;2.66;;;;;;;20.31;54.30;101206.08;;;;-59
2020/11/08 12:09:15;;;;;;;3.29;2.58;;;;;;;20.32;54.25;101204.64;;;;-58
2020/11/08 12:12:15;;;;;;;4.60;2.83;;;;;;;20.33;54.29;101199.59;;;;-59
2020/11/08 12:15:15;;;;;;;2.83;2.51;;;;;;;20.33;54.27;101200.58;;;;-60
2020/11/08 12:18:15;;;;;;;5.21;2.72;;;;;;;20.32;54.32;101198.12;;;;-58
2020/11/08 12:21:15;;;;;;;4.67;2.71;;;;;;;20.33;54.29;101196.91;;;;-59
2020/11/08 12:24:15;;;;;;;4.29;2.45;;;;;;;20.32;54.38;101194.88;;;;-59
2020/11/08 12:27:15;;;;;;;3.84;2.47;;;;;;;20.32;54.40;101191.62;;;;-60
2020/11/08 12:30:15;;;;;;;3.81;2.44;;;;;;;20.32;54.37;101186.09;;;;-59
2020/11/08 12:33:15;;;;;;;3.75;2.64;;;;;;;20.33;54.34;101184.62;;;;-60
2020/11/08 12:36:15;;;;;;;4.13;2.55;;;;;;;20.33;54.42;101177.86;;;;-58
2020/11/08 12:39:15;;;;;;;2.67;2.37;;;;;;;20.33;54.38;101176.48;;;;-60
2020/11/08 12:42:15;;;;;;;3.19;2.52;;;;;;;20.32;54.35;101172.81;;;;-60
2020/11/08 12:45:15;;;;;;;2.76;2.33;;;;;;;20.32;54.36;101167.85;;;;-59
2020/11/08 12:48:15;;;;;;;4.14;2.38;;;;;;;20.33;54.36;101165.81;;;;-59
2020/11/08 12:51:15;;;;;;;3.03;2.42;;;;;;;20.33;54.37;101161.17;;;;-59
2020/11/08 12:54:15;;;;;;;3.57;2.47;;;;;;;20.34;54.40;101156.89;;;;-60
2020/11/08 12:57:15;;;;;;;2.97;2.35;;;;;;;20.33;54.37;101151.89;;;;-59
2020/11/08 13:00:15;;;;;;;2.59;2.35;;;;;;;20.33;54.34;101147.34;;;;-59
2020/11/08 13:03:15;;;;;;;3.51;2.51;;;;;;;20.32;54.45;101139.77;;;;-59
2020/11/08 13:06:15;;;;;;;10.16;2.58;;;;;;;20.34;54.71;101138.81;;;;-54
2020/11/08 13:09:15;;;;;;;3.51;2.55;;;;;;;20.36;54.80;101135.40;;;;-54
2020/11/08 13:12:15;;;;;;;2.54;2.34;;;;;;;20.37;54.96;101135.91;;;;-56
2020/11/08 13:15:15;;;;;;;2.75;2.45;;;;;;;20.38;54.99;101135.45;;;;-56
2020/11/08 13:18:15;;;;;;;3.75;2.51;;;;;;;20.39;54.97;101125.52;;;;-57
2020/11/08 13:21:15;;;;;;;2.73;2.46;;;;;;;20.40;54.97;101123.56;;;;-54
2020/11/08 13:24:15;;;;;;;3.98;2.60;;;;;;;20.42;55.15;101121.31;;;;-54
2020/11/08 13:27:15;;;;;;;3.21;2.59;;;;;;;20.42;55.20;101117.44;;;;-61
2020/11/08 13:30:15;;;;;;;3.48;2.42;;;;;;;20.44;55.09;101115.07;;;;-57
2020/11/08 13:33:15;;;;;;;2.52;2.27;;;;;;;20.44;55.10;101115.80;;;;-60
2020/11/08 13:36:15;;;;;;;2.61;2.40;;;;;;;20.45;55.24;101111.77;;;;-61
2020/11/08 13:39:15;;;;;;;3.17;2.38;;;;;;;20.46;55.15;101106.66;;;;-59
2020/11/08 13:42:16;;;;;;;5.23;2.41;;;;;;;20.48;55.12;101106.16;;;;-52
2020/11/08 13:45:15;;;;;;;3.15;2.50;;;;;;;20.48;55.26;101107.06;;;;-59
2020/11/08 13:48:15;;;;;;;2.69;2.32;;;;;;;20.50;55.20;101107.17;;;;-51
2020/11/08 13:51:15;;;;;;;3.51;2.43;;;;;;;20.51;55.24;101109.72;;;;-50
2020/11/08 13:54:15;;;;;;;3.73;2.49;;;;;;;20.52;55.25;101110.62;;;;-49
2020/11/08 13:57:15;;;;;;;2.51;2.31;;;;;;;20.53;55.27;101109.26;;;;-47
2020/11/08 14:00:16;;;;;;;2.98;2.36;;;;;;;20.53;55.17;101109.02;;;;-60
2020/11/08 14:03:15;;;;;;;2.53;2.29;;;;;;;20.54;55.16;101107.30;;;;-48
2020/11/08 14:06:15;;;;;;;2.55;2.35;;;;;;;20.55;55.15;101108.64;;;;-57
2020/11/08 14:09:15;;;;;;;3.11;2.32;;;;;;;20.55;55.04;101112.38;;;;-56
2020/11/08 14:12:15;;;;;;;4.11;2.41;;;;;;;20.55;55.15;101114.82;;;;-57
2020/11/08 14:15:17;;;;;;;5.45;2.52;;;;;;;20.56;55.02;101115.80;;;;-57
2020/11/08 14:18:15;;;;;;;6.14;2.91;;;;;;;20.56;54.93;101113.92;;;;-57
2020/11/08 14:21:15;;;;;;;6.75;3.04;;;;;;;20.55;54.71;101112.46;;;;-57
2020/11/08 14:24:15;;;;;;;6.99;2.93;;;;;;;20.55;54.91;101114.98;;;;-60
2020/11/08 14:27:15;;;;;;;4.85;2.61;;;;;;;20.54;54.85;101114.63;;;;-60
2020/11/08 14:30:15;;;;;;;6.53;2.62;;;;;;;20.52;54.87;101113.74;;;;-60
2020/11/08 14:33:15;;;;;;;3.46;2.83;;;;;;;20.52;54.77;101114.52;;;;-57
2020/11/08 14:36:15;;;;;;;5.65;2.70;;;;;;;20.51;54.84;101119.82;;;;-57
2020/11/08 14:39:15;;;;;;;3.63;2.47;;;;;;;20.50;54.81;101121.70;;;;-59
2020/11/08 14:42:15;;;;;;;4.27;2.72;;;;;;;20.50;54.79;101122.72;;;;-60
2020/11/08 14:45:15;;;;;;;2.73;2.43;;;;;;;20.49;54.77;101129.08;;;;-60
2020/11/08 14:48:15;;;;;;;3.45;2.50;;;;;;;20.49;54.76;101126.80;;;;-60
2020/11/08 14:51:15;;;;;;;6.06;2.73;;;;;;;20.49;54.81;101137.46;;;;-60
2020/11/08 14:54:15;;;;;;;3.26;2.63;;;;;;;20.48;54.70;101136.08;;;;-56
2020/11/08 14:57:15;;;;;;;2.89;2.59;;;;;;;20.49;54.76;101140.72;;;;-60
2020/11/08 15:00:15;;;;;;;2.88;2.45;;;;;;;20.48;54.71;101142.08;;;;-60
2020/11/08 15:03:15;;;;;;;2.90;2.61;;;;;;;20.48;54.76;101148.67;;;;-60
2020/11/08 15:06:15;;;;;;;3.23;2.56;;;;;;;20.48;54.76;101148.51;;;;-60
2020/11/08 15:09:15;;;;;;;2.71;2.43;;;;;;;20.48;54.76;101151.36;;;;-57
2020/11/08 15:12:15;;;;;;;2.51;2.31;;;;;;;20.47;54.72;101147.70;;;;-57
2020/11/08 15:15:15;;;;;;;3.30;2.48;;;;;;;20.48;54.76;101147.04;;;;-56
2020/11/08 15:18:15;;;;;;;4.61;2.31;;;;;;;20.48;54.79;101144.52;;;;-59
2020/11/08 15:21:15;;;;;;;3.95;2.51;;;;;;;20.48;54.72;101143.48;;;;-57
2020/11/08 15:24:15;;;;;;;3.27;2.59;;;;;;;20.47;54.75;101138.17;;;;-57
2020/11/08 15:27:15;;;;;;;3.48;2.57;;;;;;;20.48;54.78;101139.74;;;;-60
2020/11/08 15:30:15;;;;;;;3.15;2.48;;;;;;;20.48;54.78;101137.11;;;;-56
2020/11/08 15:33:15;;;;;;;2.60;2.40;;;;;;;20.48;54.79;101136.62;;;;-57
2020/11/08 15:36:15;;;;;;;2.73;2.51;;;;;;;20.47;54.77;101135.89;;;;-57
2020/11/08 15:39:15;;;;;;;3.07;2.51;;;;;;;20.48;54.78;101135.07;;;;-56
2020/11/08 15:42:15;;;;;;;3.14;2.43;;;;;;;20.48;54.80;101136.00;;;;-58
2020/11/08 15:45:15;;;;;;;3.93;2.49;;;;;;;20.48;54.80;101137.55;;;;-60
2020/11/08 15:48:15;;;;;;;2.55;2.35;;;;;;;20.48;54.76;101136.33;;;;-60
2020/11/08 15:51:15;;;;;;;2.90;2.41;;;;;;;20.49;54.78;101135.52;;;;-60
2020/11/08 15:54:15;;;;;;;4.63;2.63;;;;;;;20.48;55.00;101144.06;;;;-51
2020/11/08 15:57:15;;;;;;;4.85;2.55;;;;;;;20.50;55.19;101148.05;;;;-50
2020/11/08 16:00:15;;;;;;;3.48;2.46;;;;;;;20.51;55.28;101151.09;;;;-50
2020/11/08 16:03:20;;;;;;;2.75;2.55;;;;;;;20.52;55.31;101152.50;;;;-50
2020/11/08 16:06:15;;;;;;;2.79;2.55;;;;;;;20.54;55.42;101154.29;;;;-58
2020/11/08 16:09:15;;;;;;;4.05;2.51;;;;;;;20.55;55.48;101154.97;;;;-52
2020/11/08 16:12:15;;;;;;;3.63;2.39;;;;;;;20.56;55.48;101153.75;;;;-58
2020/11/08 16:15:15;;;;;;;3.21;2.35;;;;;;;20.56;55.45;101151.70;;;;-52
2020/11/08 16:18:15;;;;;;;2.59;2.37;;;;;;;20.57;55.50;101157.28;;;;-60
2020/11/08 16:21:15;;;;;;;4.13;2.98;;;;;;;20.56;54.59;101157.25;;;;-56
2020/11/08 16:24:15;;;;;;;3.99;2.77;;;;;;;20.57;54.75;101152.23;;;;-52
2020/11/08 16:27:15;;;;;;;4.06;2.78;;;;;;;20.58;54.89;101154.70;;;;-51
2020/11/08 16:30:15;;;;;;;3.21;2.89;;;;;;;20.59;55.00;101154.32;;;;-57
2020/11/08 16:33:15;;;;;;;4.37;2.86;;;;;;;20.59;55.28;101150.73;;;;-57
2020/11/08 16:36:15;;;;;;;5.89;3.47;;;;;;;20.60;55.19;101146.66;;;;-49
2020/11/08 16:39:15;;;;;;;23.41;4.51;;;;;;;20.60;54.92;101143.24;;;;-47
2020/11/08 16:42:15;;;;;;;10.17;4.27;;;;;;;20.58;54.88;101147.20;;;;-47
2020/11/08 16:45:45;;;;;;;10.12;4.85;;;;;;;20.58;54.59;101149.70;;;;-47